sensor_id;sensor_type;location;lat;lon;timestamp;temperature;humidity
17495;DHT22;8864;51.970;4.614;2022-12-07T00:01:36;14.20;78.50
17495;DHT22;8864;51.970;4.614;2022-12-07T00:04:05;14.20;78.50
17495;DHT22;8864;51.970;4.614;2022-12-07T00:06:33;14.10;78.30
17495;DHT22;8864;51.970;4.614;2022-12-07T00:09:03;14.10;78.30
17495;DHT22;8864;51.970;4.614;2022-12-07T00:11:30;14.20;78.30
17495;DHT22;8864;51.970;4.614;2022-12-07T00:13:59;14.10;78.30
17495;DHT22;8864;51.970;4.614;2022-12-07T00:16:28;14.10;78.20
17495;DHT22;8864;51.970;4.614;2022-12-07T00:18:56;14.10;78.30
17495;DHT22;8864;51.970;4.614;2022-12-07T00:21:25;14.10;78.30
17495;DHT22;8864;51.970;4.614;2022-12-07T00:23:54;14.10;78.30
17495;DHT22;8864;51.970;4.614;2022-12-07T00:26:24;14.20;78.30
17495;DHT22;8864;51.970;4.614;2022-12-07T00:28:53;14.10;78.20
17495;DHT22;8864;51.970;4.614;2022-12-07T00:31:22;14.10;78.20
17495;DHT22;8864;51.970;4.614;2022-12-07T00:33:49;14.10;78.20
17495;DHT22;8864;51.970;4.614;2022-12-07T00:36:18;14.10;78.20
17495;DHT22;8864;51.970;4.614;2022-12-07T00:38:45;14.20;78.20
17495;DHT22;8864;51.970;4.614;2022-12-07T00:41:14;14.10;78.10
17495;DHT22;8864;51.970;4.614;2022-12-07T00:43:43;14.10;78.20
17495;DHT22;8864;51.970;4.614;2022-12-07T00:46:11;14.10;78.20
17495;DHT22;8864;51.970;4.614;2022-12-07T00:48:38;14.10;78.20
17495;DHT22;8864;51.970;4.614;2022-12-07T00:51:05;14.10;78.10
17495;DHT22;8864;51.970;4.614;2022-12-07T00:53:34;14.10;78.10
17495;DHT22;8864;51.970;4.614;2022-12-07T00:56:05;14.20;78.20
17495;DHT22;8864;51.970;4.614;2022-12-07T00:58:32;14.10;78.10
17495;DHT22;8864;51.970;4.614;2022-12-07T01:01:02;14.10;78.00
17495;DHT22;8864;51.970;4.614;2022-12-07T01:03:29;14.10;78.10
17495;DHT22;8864;51.970;4.614;2022-12-07T01:05:57;14.10;78.10
17495;DHT22;8864;51.970;4.614;2022-12-07T01:08:25;14.10;78.10
17495;DHT22;8864;51.970;4.614;2022-12-07T01:10:58;14.10;78.10
17495;DHT22;8864;51.970;4.614;2022-12-07T01:13:26;14.10;78.10
17495;DHT22;8864;51.970;4.614;2022-12-07T01:15:56;14.10;78.80
17495;DHT22;8864;51.970;4.614;2022-12-07T01:18:25;14.10;78.20
17495;DHT22;8864;51.970;4.614;2022-12-07T01:21:00;14.10;78.10
17495;DHT22;8864;51.970;4.614;2022-12-07T01:23:27;14.10;78.10
17495;DHT22;8864;51.970;4.614;2022-12-07T01:25:55;14.10;78.10
17495;DHT22;8864;51.970;4.614;2022-12-07T01:28:22;14.10;78.00
17495;DHT22;8864;51.970;4.614;2022-12-07T01:30:56;14.10;78.20
17495;DHT22;8864;51.970;4.614;2022-12-07T01:33:24;14.10;78.10
17495;DHT22;8864;51.970;4.614;2022-12-07T01:35:53;14.10;78.10
17495;DHT22;8864;51.970;4.614;2022-12-07T01:38:19;14.10;78.20
17495;DHT22;8864;51.970;4.614;2022-12-07T01:40:54;14.10;78.20
17495;DHT22;8864;51.970;4.614;2022-12-07T01:43:21;14.10;78.20
17495;DHT22;8864;51.970;4.614;2022-12-07T01:45:49;14.10;78.20
17495;DHT22;8864;51.970;4.614;2022-12-07T01:48:18;14.10;78.20
17495;DHT22;8864;51.970;4.614;2022-12-07T01:50:48;14.10;78.10
17495;DHT22;8864;51.970;4.614;2022-12-07T01:53:17;14.10;78.00
17495;DHT22;8864;51.970;4.614;2022-12-07T01:55:47;14.10;78.00
17495;DHT22;8864;51.970;4.614;2022-12-07T01:58:16;14.10;78.10
17495;DHT22;8864;51.970;4.614;2022-12-07T02:00:43;14.10;78.00
17495;DHT22;8864;51.970;4.614;2022-12-07T02:03:13;14.10;78.00
17495;DHT22;8864;51.970;4.614;2022-12-07T02:05:43;14.10;78.00
17495;DHT22;8864;51.970;4.614;2022-12-07T02:08:12;14.10;78.00
17495;DHT22;8864;51.970;4.614;2022-12-07T02:10:40;14.10;77.90
17495;DHT22;8864;51.970;4.614;2022-12-07T02:13:10;14.10;78.00
17495;DHT22;8864;51.970;4.614;2022-12-07T02:16:01;14.10;77.90
17495;DHT22;8864;51.970;4.614;2022-12-07T02:18:40;14.10;77.90
17495;DHT22;8864;51.970;4.614;2022-12-07T02:21:12;14.10;77.90
17495;DHT22;8864;51.970;4.614;2022-12-07T02:23:59;14.10;77.90
17495;DHT22;8864;51.970;4.614;2022-12-07T02:26:51;14.10;77.90
17495;DHT22;8864;51.970;4.614;2022-12-07T02:29:24;14.10;77.90
17495;DHT22;8864;51.970;4.614;2022-12-07T02:32:03;14.10;77.90
17495;DHT22;8864;51.970;4.614;2022-12-07T02:34:39;14.10;77.90
17495;DHT22;8864;51.970;4.614;2022-12-07T02:37:15;14.10;77.90
17495;DHT22;8864;51.970;4.614;2022-12-07T02:39:49;14.10;77.90
17495;DHT22;8864;51.970;4.614;2022-12-07T02:42:21;14.10;77.80
17495;DHT22;8864;51.970;4.614;2022-12-07T02:44:52;14.10;77.70
17495;DHT22;8864;51.970;4.614;2022-12-07T02:47:20;14.10;77.80
17495;DHT22;8864;51.970;4.614;2022-12-07T02:49:49;14.10;77.70
17495;DHT22;8864;51.970;4.614;2022-12-07T02:52:17;14.10;77.70
17495;DHT22;8864;51.970;4.614;2022-12-07T02:54:43;14.10;77.70
17495;DHT22;8864;51.970;4.614;2022-12-07T02:57:22;14.10;77.70
17495;DHT22;8864;51.970;4.614;2022-12-07T03:00:00;14.10;77.90
17495;DHT22;8864;51.970;4.614;2022-12-07T03:02:38;14.10;78.10
17495;DHT22;8864;51.970;4.614;2022-12-07T03:05:20;14.10;78.10
17495;DHT22;8864;51.970;4.614;2022-12-07T03:07:53;14.10;78.10
17495;DHT22;8864;51.970;4.614;2022-12-07T03:10:27;14.10;78.00
17495;DHT22;8864;51.970;4.614;2022-12-07T03:13:03;14.10;78.00
17495;DHT22;8864;51.970;4.614;2022-12-07T03:15:35;14.10;78.00
17495;DHT22;8864;51.970;4.614;2022-12-07T03:18:08;14.20;78.10
17495;DHT22;8864;51.970;4.614;2022-12-07T03:20:37;14.10;78.00
17495;DHT22;8864;51.970;4.614;2022-12-07T03:23:07;14.20;78.00
17495;DHT22;8864;51.970;4.614;2022-12-07T03:25:39;14.10;78.00
17495;DHT22;8864;51.970;4.614;2022-12-07T03:28:08;14.10;78.00
17495;DHT22;8864;51.970;4.614;2022-12-07T03:30:43;14.10;77.90
17495;DHT22;8864;51.970;4.614;2022-12-07T03:33:15;14.10;77.90
17495;DHT22;8864;51.970;4.614;2022-12-07T03:35:47;14.10;77.90
17495;DHT22;8864;51.970;4.614;2022-12-07T03:38:19;14.10;77.80
17495;DHT22;8864;51.970;4.614;2022-12-07T03:40:52;14.10;77.80
17495;DHT22;8864;51.970;4.614;2022-12-07T03:43:21;14.10;77.80
17495;DHT22;8864;51.970;4.614;2022-12-07T03:46:00;14.10;77.70
17495;DHT22;8864;51.970;4.614;2022-12-07T03:48:34;14.10;77.70
17495;DHT22;8864;51.970;4.614;2022-12-07T03:51:08;14.20;77.70
17495;DHT22;8864;51.970;4.614;2022-12-07T03:53:42;14.10;77.60
17495;DHT22;8864;51.970;4.614;2022-12-07T03:56:11;14.10;77.60
17495;DHT22;8864;51.970;4.614;2022-12-07T03:58:40;14.10;77.70
17495;DHT22;8864;51.970;4.614;2022-12-07T04:01:10;14.20;77.60
17495;DHT22;8864;51.970;4.614;2022-12-07T04:03:37;14.10;77.60
17495;DHT22;8864;51.970;4.614;2022-12-07T04:06:05;14.10;77.50
17495;DHT22;8864;51.970;4.614;2022-12-07T04:08:32;14.10;77.60
17495;DHT22;8864;51.970;4.614;2022-12-07T04:10:59;14.10;77.50
17495;DHT22;8864;51.970;4.614;2022-12-07T04:13:25;14.10;77.50
17495;DHT22;8864;51.970;4.614;2022-12-07T04:15:52;14.10;77.50
17495;DHT22;8864;51.970;4.614;2022-12-07T04:18:21;14.10;77.50
17495;DHT22;8864;51.970;4.614;2022-12-07T04:20:47;14.10;77.40
17495;DHT22;8864;51.970;4.614;2022-12-07T04:23:14;14.10;77.40
17495;DHT22;8864;51.970;4.614;2022-12-07T04:25:41;14.10;77.40
17495;DHT22;8864;51.970;4.614;2022-12-07T04:28:08;14.20;77.50
17495;DHT22;8864;51.970;4.614;2022-12-07T04:30:35;14.10;77.40
17495;DHT22;8864;51.970;4.614;2022-12-07T04:33:01;14.10;77.40
17495;DHT22;8864;51.970;4.614;2022-12-07T04:35:30;14.10;77.30
17495;DHT22;8864;51.970;4.614;2022-12-07T04:37:57;14.10;77.30
17495;DHT22;8864;51.970;4.614;2022-12-07T04:40:23;14.10;77.30
17495;DHT22;8864;51.970;4.614;2022-12-07T04:42:50;14.10;77.30
17495;DHT22;8864;51.970;4.614;2022-12-07T04:45:17;14.10;77.20
17495;DHT22;8864;51.970;4.614;2022-12-07T04:47:44;14.10;77.20
17495;DHT22;8864;51.970;4.614;2022-12-07T04:50:11;14.10;77.20
17495;DHT22;8864;51.970;4.614;2022-12-07T04:52:39;14.10;77.20
17495;DHT22;8864;51.970;4.614;2022-12-07T04:55:07;14.10;77.10
17495;DHT22;8864;51.970;4.614;2022-12-07T04:57:33;14.10;77.10
17495;DHT22;8864;51.970;4.614;2022-12-07T05:00:00;14.10;77.10
17495;DHT22;8864;51.970;4.614;2022-12-07T05:02:28;14.10;77.10
17495;DHT22;8864;51.970;4.614;2022-12-07T05:04:54;14.10;77.10
17495;DHT22;8864;51.970;4.614;2022-12-07T05:07:21;14.10;77.10
17495;DHT22;8864;51.970;4.614;2022-12-07T05:09:49;14.10;77.00
17495;DHT22;8864;51.970;4.614;2022-12-07T05:12:16;14.10;77.10
17495;DHT22;8864;51.970;4.614;2022-12-07T05:14:43;14.10;77.00
17495;DHT22;8864;51.970;4.614;2022-12-07T05:17:10;14.10;77.00
17495;DHT22;8864;51.970;4.614;2022-12-07T05:19:37;14.10;77.10
17495;DHT22;8864;51.970;4.614;2022-12-07T05:22:04;14.10;77.10
17495;DHT22;8864;51.970;4.614;2022-12-07T05:24:31;14.10;77.50
17495;DHT22;8864;51.970;4.614;2022-12-07T05:26:59;14.10;78.00
17495;DHT22;8864;51.970;4.614;2022-12-07T05:29:26;14.20;77.90
17495;DHT22;8864;51.970;4.614;2022-12-07T05:31:53;14.20;78.20
17495;DHT22;8864;51.970;4.614;2022-12-07T05:34:19;14.20;78.50
17495;DHT22;8864;51.970;4.614;2022-12-07T05:36:46;14.20;78.60
17495;DHT22;8864;51.970;4.614;2022-12-07T05:39:13;14.20;78.50
17495;DHT22;8864;51.970;4.614;2022-12-07T05:41:41;14.20;78.10
17495;DHT22;8864;51.970;4.614;2022-12-07T05:44:26;14.20;77.90
17495;DHT22;8864;51.970;4.614;2022-12-07T05:46:53;14.20;77.60
17495;DHT22;8864;51.970;4.614;2022-12-07T05:49:20;14.20;77.40
17495;DHT22;8864;51.970;4.614;2022-12-07T05:51:47;14.20;77.10
17495;DHT22;8864;51.970;4.614;2022-12-07T05:54:14;14.20;77.10
17495;DHT22;8864;51.970;4.614;2022-12-07T05:56:41;14.00;76.80
17495;DHT22;8864;51.970;4.614;2022-12-07T05:59:08;14.20;76.70
17495;DHT22;8864;51.970;4.614;2022-12-07T06:01:52;14.20;76.60
17495;DHT22;8864;51.970;4.614;2022-12-07T06:04:19;14.20;76.50
17495;DHT22;8864;51.970;4.614;2022-12-07T06:06:46;14.20;76.30
17495;DHT22;8864;51.970;4.614;2022-12-07T06:09:13;14.20;76.30
17495;DHT22;8864;51.970;4.614;2022-12-07T06:11:41;14.20;76.40
17495;DHT22;8864;51.970;4.614;2022-12-07T06:14:25;14.20;77.70
17495;DHT22;8864;51.970;4.614;2022-12-07T06:16:54;14.20;77.60
17495;DHT22;8864;51.970;4.614;2022-12-07T06:19:21;14.20;77.40
17495;DHT22;8864;51.970;4.614;2022-12-07T06:21:47;14.20;77.10
17495;DHT22;8864;51.970;4.614;2022-12-07T06:24:15;14.20;77.00
17495;DHT22;8864;51.970;4.614;2022-12-07T06:26:43;14.20;76.80
17495;DHT22;8864;51.970;4.614;2022-12-07T06:29:10;14.10;76.70
17495;DHT22;8864;51.970;4.614;2022-12-07T06:31:38;14.10;76.60
17495;DHT22;8864;51.970;4.614;2022-12-07T06:34:08;14.10;76.50
17495;DHT22;8864;51.970;4.614;2022-12-07T06:36:36;14.20;76.50
17495;DHT22;8864;51.970;4.614;2022-12-07T06:39:04;14.10;76.50
17495;DHT22;8864;51.970;4.614;2022-12-07T06:41:32;14.10;76.40
17495;DHT22;8864;51.970;4.614;2022-12-07T06:43:58;14.10;76.40
17495;DHT22;8864;51.970;4.614;2022-12-07T06:46:25;14.10;76.30
17495;DHT22;8864;51.970;4.614;2022-12-07T06:48:52;14.10;76.30
17495;DHT22;8864;51.970;4.614;2022-12-07T06:51:21;14.10;76.20
17495;DHT22;8864;51.970;4.614;2022-12-07T06:53:48;14.10;76.20
17495;DHT22;8864;51.970;4.614;2022-12-07T06:56:14;14.10;76.20
17495;DHT22;8864;51.970;4.614;2022-12-07T06:58:42;14.10;76.10
17495;DHT22;8864;51.970;4.614;2022-12-07T07:01:09;14.10;76.20
17495;DHT22;8864;51.970;4.614;2022-12-07T07:03:37;14.10;76.20
17495;DHT22;8864;51.970;4.614;2022-12-07T07:06:04;14.10;76.10
17495;DHT22;8864;51.970;4.614;2022-12-07T07:08:33;14.10;76.00
17495;DHT22;8864;51.970;4.614;2022-12-07T07:11:00;14.10;76.00
17495;DHT22;8864;51.970;4.614;2022-12-07T07:13:27;14.10;76.00
17495;DHT22;8864;51.970;4.614;2022-12-07T07:15:54;14.10;76.00
17495;DHT22;8864;51.970;4.614;2022-12-07T07:18:21;14.10;75.90
17495;DHT22;8864;51.970;4.614;2022-12-07T07:20:50;14.10;76.00
17495;DHT22;8864;51.970;4.614;2022-12-07T07:23:17;14.10;75.90
17495;DHT22;8864;51.970;4.614;2022-12-07T07:25:45;14.10;75.90
17495;DHT22;8864;51.970;4.614;2022-12-07T07:28:12;14.10;75.90
17495;DHT22;8864;51.970;4.614;2022-12-07T07:30:39;14.10;75.90
17495;DHT22;8864;51.970;4.614;2022-12-07T07:33:07;14.10;75.80
17495;DHT22;8864;51.970;4.614;2022-12-07T07:35:34;14.10;75.80
17495;DHT22;8864;51.970;4.614;2022-12-07T07:38:01;14.10;75.70
17495;DHT22;8864;51.970;4.614;2022-12-07T07:40:28;14.10;75.70
17495;DHT22;8864;51.970;4.614;2022-12-07T07:42:57;14.10;75.70
17495;DHT22;8864;51.970;4.614;2022-12-07T07:45:26;14.10;75.60
17495;DHT22;8864;51.970;4.614;2022-12-07T07:47:54;14.10;75.60
17495;DHT22;8864;51.970;4.614;2022-12-07T07:50:21;14.10;75.60
17495;DHT22;8864;51.970;4.614;2022-12-07T07:52:48;14.10;75.60
17495;DHT22;8864;51.970;4.614;2022-12-07T07:55:15;14.10;75.60
17495;DHT22;8864;51.970;4.614;2022-12-07T07:57:42;14.10;75.60
17495;DHT22;8864;51.970;4.614;2022-12-07T08:00:12;14.10;75.50
17495;DHT22;8864;51.970;4.614;2022-12-07T08:02:39;14.10;75.50
17495;DHT22;8864;51.970;4.614;2022-12-07T08:05:07;14.10;75.50
17495;DHT22;8864;51.970;4.614;2022-12-07T08:07:34;14.10;75.40
17495;DHT22;8864;51.970;4.614;2022-12-07T08:10:01;14.10;75.40
17495;DHT22;8864;51.970;4.614;2022-12-07T08:12:28;14.10;75.40
17495;DHT22;8864;51.970;4.614;2022-12-07T08:14:55;14.10;75.40
17495;DHT22;8864;51.970;4.614;2022-12-07T08:17:23;14.10;75.40
17495;DHT22;8864;51.970;4.614;2022-12-07T08:19:50;14.10;75.40
17495;DHT22;8864;51.970;4.614;2022-12-07T08:22:19;14.10;75.30
17495;DHT22;8864;51.970;4.614;2022-12-07T08:24:46;14.10;75.40
17495;DHT22;8864;51.970;4.614;2022-12-07T08:27:12;14.10;75.30
17495;DHT22;8864;51.970;4.614;2022-12-07T08:29:39;14.10;75.30
17495;DHT22;8864;51.970;4.614;2022-12-07T08:32:06;14.10;75.30
17495;DHT22;8864;51.970;4.614;2022-12-07T08:34:34;14.10;75.30
17495;DHT22;8864;51.970;4.614;2022-12-07T08:37:02;14.10;75.20
17495;DHT22;8864;51.970;4.614;2022-12-07T08:39:29;14.10;75.20
17495;DHT22;8864;51.970;4.614;2022-12-07T08:41:56;14.10;75.30
17495;DHT22;8864;51.970;4.614;2022-12-07T08:44:23;14.10;75.30
17495;DHT22;8864;51.970;4.614;2022-12-07T08:46:51;14.10;75.20
17495;DHT22;8864;51.970;4.614;2022-12-07T08:49:21;14.10;75.30
17495;DHT22;8864;51.970;4.614;2022-12-07T08:51:51;14.20;75.30
17495;DHT22;8864;51.970;4.614;2022-12-07T08:54:18;14.20;75.30
17495;DHT22;8864;51.970;4.614;2022-12-07T08:56:47;14.20;75.20
17495;DHT22;8864;51.970;4.614;2022-12-07T08:59:16;14.20;75.20
17495;DHT22;8864;51.970;4.614;2022-12-07T09:01:44;14.20;75.20
17495;DHT22;8864;51.970;4.614;2022-12-07T09:04:11;14.20;75.20
17495;DHT22;8864;51.970;4.614;2022-12-07T09:06:38;14.20;75.20
17495;DHT22;8864;51.970;4.614;2022-12-07T09:09:07;14.20;75.20
17495;DHT22;8864;51.970;4.614;2022-12-07T09:11:35;14.20;75.10
17495;DHT22;8864;51.970;4.614;2022-12-07T09:14:02;14.30;75.20
17495;DHT22;8864;51.970;4.614;2022-12-07T09:16:29;14.30;75.40
17495;DHT22;8864;51.970;4.614;2022-12-07T09:18:56;14.30;75.20
17495;DHT22;8864;51.970;4.614;2022-12-07T09:21:23;14.30;75.10
17495;DHT22;8864;51.970;4.614;2022-12-07T09:23:50;14.30;75.10
17495;DHT22;8864;51.970;4.614;2022-12-07T09:26:18;14.30;75.00
17495;DHT22;8864;51.970;4.614;2022-12-07T09:28:45;14.40;75.00
17495;DHT22;8864;51.970;4.614;2022-12-07T09:31:12;14.40;75.10
17495;DHT22;8864;51.970;4.614;2022-12-07T09:33:39;14.30;75.10
17495;DHT22;8864;51.970;4.614;2022-12-07T09:36:07;14.30;75.10
17495;DHT22;8864;51.970;4.614;2022-12-07T09:38:35;14.30;75.10
17495;DHT22;8864;51.970;4.614;2022-12-07T09:41:05;14.30;75.10
17495;DHT22;8864;51.970;4.614;2022-12-07T09:43:35;14.30;75.20
17495;DHT22;8864;51.970;4.614;2022-12-07T09:46:03;14.40;75.20
17495;DHT22;8864;51.970;4.614;2022-12-07T09:48:33;14.30;75.20
17495;DHT22;8864;51.970;4.614;2022-12-07T09:51:03;14.30;75.90
17495;DHT22;8864;51.970;4.614;2022-12-07T09:53:38;14.30;75.30
17495;DHT22;8864;51.970;4.614;2022-12-07T09:56:06;14.30;75.30
17495;DHT22;8864;51.970;4.614;2022-12-07T09:58:34;14.30;75.30
17495;DHT22;8864;51.970;4.614;2022-12-07T10:01:11;14.30;75.20
17495;DHT22;8864;51.970;4.614;2022-12-07T10:03:41;14.30;75.30
17495;DHT22;8864;51.970;4.614;2022-12-07T10:06:11;14.40;75.20
17495;DHT22;8864;51.970;4.614;2022-12-07T10:08:39;14.40;75.20
17495;DHT22;8864;51.970;4.614;2022-12-07T10:11:07;14.40;75.20
17495;DHT22;8864;51.970;4.614;2022-12-07T10:13:38;14.40;75.10
17495;DHT22;8864;51.970;4.614;2022-12-07T10:16:06;14.40;75.10
17495;DHT22;8864;51.970;4.614;2022-12-07T10:19:18;14.40;75.10
17495;DHT22;8864;51.970;4.614;2022-12-07T10:22:00;14.40;75.00
17495;DHT22;8864;51.970;4.614;2022-12-07T10:24:28;14.40;75.10
17495;DHT22;8864;51.970;4.614;2022-12-07T10:26:55;14.40;75.20
17495;DHT22;8864;51.970;4.614;2022-12-07T10:29:28;14.50;75.20
17495;DHT22;8864;51.970;4.614;2022-12-07T10:31:58;14.40;75.10
17495;DHT22;8864;51.970;4.614;2022-12-07T10:34:27;14.50;75.10
17495;DHT22;8864;51.970;4.614;2022-12-07T10:37:13;14.50;75.10
17495;DHT22;8864;51.970;4.614;2022-12-07T10:39:41;14.40;75.80
17495;DHT22;8864;51.970;4.614;2022-12-07T10:42:17;14.40;75.10
17495;DHT22;8864;51.970;4.614;2022-12-07T10:44:46;14.40;75.10
17495;DHT22;8864;51.970;4.614;2022-12-07T10:47:33;14.40;75.10
17495;DHT22;8864;51.970;4.614;2022-12-07T10:50:27;14.50;75.10
17495;DHT22;8864;51.970;4.614;2022-12-07T10:53:20;14.50;75.10
17495;DHT22;8864;51.970;4.614;2022-12-07T10:56:01;14.50;75.20
17495;DHT22;8864;51.970;4.614;2022-12-07T10:58:41;14.50;75.20
17495;DHT22;8864;51.970;4.614;2022-12-07T11:01:18;14.50;75.20
17495;DHT22;8864;51.970;4.614;2022-12-07T11:03:55;14.50;75.20
17495;DHT22;8864;51.970;4.614;2022-12-07T11:06:33;14.50;75.20
17495;DHT22;8864;51.970;4.614;2022-12-07T11:09:16;14.50;76.10
17495;DHT22;8864;51.970;4.614;2022-12-07T11:11:56;14.50;75.20
17495;DHT22;8864;51.970;4.614;2022-12-07T11:14:30;14.50;75.30
17495;DHT22;8864;51.970;4.614;2022-12-07T11:17:05;14.50;75.30
17495;DHT22;8864;51.970;4.614;2022-12-07T11:19:49;14.50;75.30
17495;DHT22;8864;51.970;4.614;2022-12-07T11:22:29;14.50;75.30
17495;DHT22;8864;51.970;4.614;2022-12-07T11:25:15;14.60;75.30
17495;DHT22;8864;51.970;4.614;2022-12-07T11:27:48;14.60;75.40
17495;DHT22;8864;51.970;4.614;2022-12-07T11:30:24;14.60;75.30
17495;DHT22;8864;51.970;4.614;2022-12-07T11:33:09;14.60;75.30
17495;DHT22;8864;51.970;4.614;2022-12-07T11:35:45;14.60;75.30
17495;DHT22;8864;51.970;4.614;2022-12-07T11:38:16;14.60;75.30
17495;DHT22;8864;51.970;4.614;2022-12-07T11:40:45;14.60;75.30
17495;DHT22;8864;51.970;4.614;2022-12-07T11:43:20;14.60;75.30
17495;DHT22;8864;51.970;4.614;2022-12-07T11:45:53;14.60;75.30
17495;DHT22;8864;51.970;4.614;2022-12-07T11:48:29;14.60;75.20
17495;DHT22;8864;51.970;4.614;2022-12-07T11:51:00;14.60;75.30
17495;DHT22;8864;51.970;4.614;2022-12-07T11:53:34;14.60;75.20
17495;DHT22;8864;51.970;4.614;2022-12-07T11:56:08;14.60;75.30
17495;DHT22;8864;51.970;4.614;2022-12-07T11:58:44;14.60;75.30
17495;DHT22;8864;51.970;4.614;2022-12-07T12:01:31;14.60;75.30
17495;DHT22;8864;51.970;4.614;2022-12-07T12:04:25;14.60;75.30
17495;DHT22;8864;51.970;4.614;2022-12-07T12:06:54;14.60;75.30
17495;DHT22;8864;51.970;4.614;2022-12-07T12:09:26;14.60;75.30
17495;DHT22;8864;51.970;4.614;2022-12-07T12:12:17;14.60;75.30
17495;DHT22;8864;51.970;4.614;2022-12-07T12:14:58;14.60;75.30
17495;DHT22;8864;51.970;4.614;2022-12-07T12:17:45;14.60;75.40
17495;DHT22;8864;51.970;4.614;2022-12-07T12:20:20;14.60;75.40
17495;DHT22;8864;51.970;4.614;2022-12-07T12:22:52;14.50;75.40
17495;DHT22;8864;51.970;4.614;2022-12-07T12:25:22;14.50;75.50
17495;DHT22;8864;51.970;4.614;2022-12-07T12:27:51;14.50;75.50
17495;DHT22;8864;51.970;4.614;2022-12-07T12:30:31;14.50;75.50
17495;DHT22;8864;51.970;4.614;2022-12-07T12:33:05;14.50;75.50
17495;DHT22;8864;51.970;4.614;2022-12-07T12:35:34;14.50;75.50
17495;DHT22;8864;51.970;4.614;2022-12-07T12:38:23;14.50;75.50
17495;DHT22;8864;51.970;4.614;2022-12-07T12:40:52;14.50;75.50
17495;DHT22;8864;51.970;4.614;2022-12-07T12:43:44;14.50;75.50
17495;DHT22;8864;51.970;4.614;2022-12-07T12:46:37;14.50;75.50
17495;DHT22;8864;51.970;4.614;2022-12-07T12:49:33;14.50;75.50
17495;DHT22;8864;51.970;4.614;2022-12-07T12:55:19;14.50;75.50
17495;DHT22;8864;51.970;4.614;2022-12-07T12:57:49;14.50;75.50
17495;DHT22;8864;51.970;4.614;2022-12-07T13:00:36;14.50;75.50
17495;DHT22;8864;51.970;4.614;2022-12-07T13:03:04;14.50;75.50
17495;DHT22;8864;51.970;4.614;2022-12-07T13:05:32;14.50;75.50
17495;DHT22;8864;51.970;4.614;2022-12-07T13:08:00;14.50;76.30
17495;DHT22;8864;51.970;4.614;2022-12-07T13:10:43;14.50;75.50
17495;DHT22;8864;51.970;4.614;2022-12-07T13:13:33;14.50;75.40
17495;DHT22;8864;51.970;4.614;2022-12-07T13:16:39;14.60;75.50
17495;DHT22;8864;51.970;4.614;2022-12-07T13:22:42;14.60;75.50
17495;DHT22;8864;51.970;4.614;2022-12-07T13:25:12;14.50;75.50
17495;DHT22;8864;51.970;4.614;2022-12-07T13:27:44;14.50;75.50
17495;DHT22;8864;51.970;4.614;2022-12-07T13:30:15;14.50;75.50
17495;DHT22;8864;51.970;4.614;2022-12-07T13:32:43;14.50;75.50
17495;DHT22;8864;51.970;4.614;2022-12-07T13:35:34;14.50;75.50
17495;DHT22;8864;51.970;4.614;2022-12-07T13:38:05;14.50;75.50
17495;DHT22;8864;51.970;4.614;2022-12-07T13:40:32;14.50;75.50
17495;DHT22;8864;51.970;4.614;2022-12-07T13:43:03;14.50;75.50
17495;DHT22;8864;51.970;4.614;2022-12-07T13:45:32;14.50;75.50
17495;DHT22;8864;51.970;4.614;2022-12-07T13:48:19;14.50;75.50
17495;DHT22;8864;51.970;4.614;2022-12-07T13:50:53;14.50;75.50
17495;DHT22;8864;51.970;4.614;2022-12-07T13:53:22;14.60;75.60
17495;DHT22;8864;51.970;4.614;2022-12-07T13:55:49;14.50;75.60
17495;DHT22;8864;51.970;4.614;2022-12-07T13:58:18;14.60;75.60
17495;DHT22;8864;51.970;4.614;2022-12-07T14:00:45;14.60;75.70
17495;DHT22;8864;51.970;4.614;2022-12-07T14:03:30;14.60;75.80
17495;DHT22;8864;51.970;4.614;2022-12-07T14:06:23;14.60;75.70
17495;DHT22;8864;51.970;4.614;2022-12-07T14:09:08;14.60;75.80
17495;DHT22;8864;51.970;4.614;2022-12-07T14:11:35;14.60;75.80
17495;DHT22;8864;51.970;4.614;2022-12-07T14:14:05;14.60;75.90
17495;DHT22;8864;51.970;4.614;2022-12-07T14:16:33;14.60;75.90
17495;DHT22;8864;51.970;4.614;2022-12-07T14:19:02;14.50;76.00
17495;DHT22;8864;51.970;4.614;2022-12-07T14:21:32;14.50;76.00
17495;DHT22;8864;51.970;4.614;2022-12-07T14:24:16;14.50;76.00
17495;DHT22;8864;51.970;4.614;2022-12-07T14:26:45;14.50;76.10
17495;DHT22;8864;51.970;4.614;2022-12-07T14:29:32;14.50;76.10
17495;DHT22;8864;51.970;4.614;2022-12-07T14:32:19;14.60;76.20
17495;DHT22;8864;51.970;4.614;2022-12-07T14:34:54;14.50;76.20
17495;DHT22;8864;51.970;4.614;2022-12-07T14:37:21;14.50;76.30
17495;DHT22;8864;51.970;4.614;2022-12-07T14:39:48;14.50;76.30
17495;DHT22;8864;51.970;4.614;2022-12-07T14:42:15;14.50;76.40
17495;DHT22;8864;51.970;4.614;2022-12-07T14:44:43;14.50;76.40
17495;DHT22;8864;51.970;4.614;2022-12-07T14:47:10;14.50;76.60
17495;DHT22;8864;51.970;4.614;2022-12-07T14:49:38;14.50;76.60
17495;DHT22;8864;51.970;4.614;2022-12-07T14:52:05;14.50;76.60
17495;DHT22;8864;51.970;4.614;2022-12-07T14:54:38;14.50;76.60
17495;DHT22;8864;51.970;4.614;2022-12-07T14:57:06;14.50;76.70
17495;DHT22;8864;51.970;4.614;2022-12-07T14:59:34;14.50;76.80
17495;DHT22;8864;51.970;4.614;2022-12-07T15:02:02;14.50;76.80
17495;DHT22;8864;51.970;4.614;2022-12-07T15:04:29;14.50;76.80
17495;DHT22;8864;51.970;4.614;2022-12-07T15:06:57;14.50;76.80
17495;DHT22;8864;51.970;4.614;2022-12-07T15:09:24;14.50;76.80
17495;DHT22;8864;51.970;4.614;2022-12-07T15:11:51;14.50;76.90
17495;DHT22;8864;51.970;4.614;2022-12-07T15:14:18;14.50;76.90
17495;DHT22;8864;51.970;4.614;2022-12-07T15:16:45;14.50;76.90
17495;DHT22;8864;51.970;4.614;2022-12-07T15:19:17;14.50;76.90
17495;DHT22;8864;51.970;4.614;2022-12-07T15:21:45;14.50;77.00
17495;DHT22;8864;51.970;4.614;2022-12-07T15:24:12;14.50;77.10
17495;DHT22;8864;51.970;4.614;2022-12-07T15:26:40;14.50;77.10
17495;DHT22;8864;51.970;4.614;2022-12-07T15:29:07;14.40;77.00
17495;DHT22;8864;51.970;4.614;2022-12-07T15:31:34;14.50;77.10
17495;DHT22;8864;51.970;4.614;2022-12-07T15:34:02;14.50;77.20
17495;DHT22;8864;51.970;4.614;2022-12-07T15:36:31;14.50;77.10
17495;DHT22;8864;51.970;4.614;2022-12-07T15:38:58;14.40;77.20
17495;DHT22;8864;51.970;4.614;2022-12-07T15:41:26;14.40;77.10
17495;DHT22;8864;51.970;4.614;2022-12-07T15:43:53;14.40;77.20
17495;DHT22;8864;51.970;4.614;2022-12-07T15:46:39;14.40;77.20
17495;DHT22;8864;51.970;4.614;2022-12-07T15:49:11;14.40;77.20
17495;DHT22;8864;51.970;4.614;2022-12-07T15:51:40;14.40;77.20
17495;DHT22;8864;51.970;4.614;2022-12-07T15:54:07;14.40;77.30
17495;DHT22;8864;51.970;4.614;2022-12-07T15:56:34;14.40;77.30
17495;DHT22;8864;51.970;4.614;2022-12-07T15:59:00;14.40;78.00
17495;DHT22;8864;51.970;4.614;2022-12-07T16:01:27;14.40;77.30
17495;DHT22;8864;51.970;4.614;2022-12-07T16:03:57;14.40;77.30
17495;DHT22;8864;51.970;4.614;2022-12-07T16:06:24;14.40;77.40
17495;DHT22;8864;51.970;4.614;2022-12-07T16:08:53;14.40;77.30
17495;DHT22;8864;51.970;4.614;2022-12-07T16:11:20;14.40;77.40
17495;DHT22;8864;51.970;4.614;2022-12-07T16:13:47;14.40;77.60
17495;DHT22;8864;51.970;4.614;2022-12-07T16:16:16;14.40;77.60